Time;durP1;ratioP1;P1;durP2;ratioP2;P2;SDS_P1;SDS_P2;PMS_P1;PMS_P2;Temp;Humidity;BMP_temperature;BMP_pressure;BME280_temperature;BME280_humidity;BME280_pressure;Samples;Min_cycle;Max_cycle;Signal;HPM_P1;HPM_P2
2022/11/24 00:01:29;;;;;;;6.78;3.50;;;;;;;16.35;60.87;100117.97;4782783;29;20070;-78
2022/11/24 00:03:58;;;;;;;7.15;3.47;;;;;;;16.35;60.89;100120.56;4812864;29;20474;-78
2022/11/24 00:06:25;;;;;;;8.57;3.40;;;;;;;16.34;60.79;100124.91;4812960;29;20398;-78
2022/11/24 00:08:50;;;;;;;9.10;3.78;;;;;;;16.34;60.83;100106.75;4813415;29;20039;-78
2022/11/24 00:11:19;;;;;;;5.85;3.40;;;;;;;16.35;60.63;100113.66;4797382;29;20039;-78
2022/11/24 00:13:45;;;;;;;6.00;3.35;;;;;;;16.33;60.75;100115.44;4812935;29;20037;-78
2022/11/24 00:16:20;;;;;;;6.15;2.92;;;;;;;16.35;60.53;100105.88;4812771;29;20102;-79
2022/11/24 00:18:47;;;;;;;6.32;3.10;;;;;;;16.34;60.81;100105.91;4812642;29;20061;-78
2022/11/24 00:21:14;;;;;;;7.13;3.47;;;;;;;16.34;60.73;100111.09;4809154;29;20459;-78
2022/11/24 00:23:39;;;;;;;6.03;3.15;;;;;;;16.34;60.72;100111.94;4764999;30;20380;-78
2022/11/24 00:26:08;;;;;;;8.48;3.30;;;;;;;16.33;60.91;100120.63;4779274;30;20042;-79
2022/11/24 00:28:34;;;;;;;5.18;2.72;;;;;;;16.34;60.39;100124.91;4778873;30;20036;-78
2022/11/24 00:31:01;;;;;;;7.00;3.13;;;;;;;16.34;60.53;100130.13;4778917;30;20101;-78
2022/11/24 00:33:26;;;;;;;4.95;2.60;;;;;;;16.34;60.71;100135.31;4778910;30;20110;-78
2022/11/24 00:35:56;;;;;;;6.18;2.70;;;;;;;16.33;60.65;100141.41;4778604;30;20073;-78
2022/11/24 00:38:21;;;;;;;7.32;3.22;;;;;;;16.34;60.75;100140.50;4749224;30;20453;-78
2022/11/24 00:40:47;;;;;;;6.57;3.20;;;;;;;16.34;60.62;100142.25;4763742;30;20134;-78
2022/11/24 00:43:12;;;;;;;5.32;3.22;;;;;;;16.34;60.67;100137.06;4748295;30;20050;-78
2022/11/24 00:45:37;;;;;;;5.05;2.70;;;;;;;16.33;60.61;100140.50;4763322;30;20491;-77
2022/11/24 00:48:03;;;;;;;5.65;2.92;;;;;;;16.34;60.70;100150.03;4752953;30;20110;-78
2022/11/24 00:50:28;;;;;;;7.97;3.40;;;;;;;16.35;60.58;100162.13;4780027;30;20039;-78
2022/11/24 00:52:54;;;;;;;6.55;2.97;;;;;;;16.33;60.49;100159.56;4762464;30;20529;-78
2022/11/24 00:55:19;;;;;;;5.40;2.97;;;;;;;16.32;60.79;100152.66;4748779;30;20134;-78
2022/11/24 00:57:44;;;;;;;7.90;3.22;;;;;;;16.32;60.79;100157.84;4762347;30;20483;-78
2022/11/24 01:00:10;;;;;;;5.65;2.83;;;;;;;16.33;60.60;100153.50;4777851;30;20069;-77
2022/11/24 01:02:35;;;;;;;5.25;2.50;;;;;;;16.33;60.35;100158.69;4791371;30;20130;-78
2022/11/24 01:05:02;;;;;;;6.20;3.20;;;;;;;16.33;60.51;100156.09;4747743;30;20087;-77
2022/11/24 01:34:48;;;;;;;4.45;2.20;;;;;;;16.30;60.63;100176.94;4828385;29;20068;-86
2022/11/24 02:04:22;;;;;;;5.05;1.90;;;;;;;16.29;60.55;100215.03;4930948;24;20110;-86
2022/11/24 02:06:51;;;;;;;5.35;2.33;;;;;;;16.31;60.51;100214.97;4811709;29;20035;-84
2022/11/24 02:09:30;;;;;;;5.88;2.55;;;;;;;16.29;60.54;100221.94;4812225;29;20045;-85
2022/11/24 02:11:58;;;;;;;5.30;2.78;;;;;;;16.29;60.40;100228.00;4812841;29;20098;-86
2022/11/24 02:14:26;;;;;;;4.70;2.13;;;;;;;16.29;60.59;100225.41;4815606;29;20048;-85
2022/11/24 02:16:52;;;;;;;5.10;2.83;;;;;;;16.29;60.34;100217.63;4831273;29;20046;-86
2022/11/24 02:19:34;;;;;;;4.10;2.17;;;;;;;16.29;60.23;100228.00;4816366;29;20019;-85
2022/11/24 02:22:02;;;;;;;4.40;2.20;;;;;;;16.30;60.38;100245.28;4831570;29;20023;-85
2022/11/24 02:24:51;;;;;;;4.10;2.13;;;;;;;16.29;60.36;100237.50;4831557;29;20019;-85
2022/11/24 02:27:17;;;;;;;4.13;2.38;;;;;;;16.29;60.31;100243.56;4831657;29;20023;-85
2022/11/24 02:29:43;;;;;;;3.63;2.00;;;;;;;16.29;60.10;100251.38;4831712;29;20049;-84
2022/11/24 02:32:11;;;;;;;4.90;2.13;;;;;;;16.29;60.28;100255.69;4815828;29;20072;-86
2022/11/24 02:34:36;;;;;;;6.00;2.25;;;;;;;16.29;60.74;100269.53;4815978;29;20031;-86
2022/11/24 02:37:02;;;;;;;4.22;1.90;;;;;;;16.28;60.21;100260.03;4816002;29;20039;-85
2022/11/24 02:39:30;;;;;;;4.22;2.10;;;;;;;16.29;60.36;100269.53;4816072;29;20046;-86
2022/11/24 02:42:00;;;;;;;3.33;1.85;;;;;;;16.30;60.34;100262.59;4800822;29;20092;-85
2022/11/24 02:44:30;;;;;;;3.75;2.00;;;;;;;16.29;60.47;100268.66;4831516;29;20043;-85
2022/11/24 02:47:07;;;;;;;5.45;2.10;;;;;;;16.28;60.36;100264.34;4831552;29;20103;-85
2022/11/24 02:49:32;;;;;;;3.55;1.65;;;;;;;16.30;60.33;100273.00;4813479;29;20043;-85
2022/11/24 02:51:58;;;;;;;4.20;1.83;;;;;;;16.28;60.22;100266.97;4831206;29;20023;-85
2022/11/24 02:54:24;;;;;;;4.72;1.92;;;;;;;16.25;60.11;100260.94;4815568;29;20038;-86
2022/11/24 02:56:50;;;;;;;4.75;1.95;;;;;;;16.27;60.29;100271.28;4800779;29;20046;-86
2022/11/24 02:59:16;;;;;;;4.03;2.10;;;;;;;16.27;60.05;100260.06;4814777;29;20046;-85
2022/11/24 03:01:41;;;;;;;4.43;2.10;;;;;;;16.28;60.25;100261.75;4830392;29;20035;-84
2022/11/24 03:04:07;;;;;;;3.88;1.70;;;;;;;16.27;60.41;100260.06;4842349;29;20035;-86
2022/11/24 03:06:33;;;;;;;3.88;2.10;;;;;;;16.25;60.19;100262.66;4831078;29;20058;-85
2022/11/24 03:08:58;;;;;;;3.53;1.60;;;;;;;16.27;60.22;100266.09;4830178;29;20031;-85
2022/11/24 03:11:24;;;;;;;3.15;1.70;;;;;;;16.28;60.38;100269.56;4830530;29;20035;-85
2022/11/24 03:13:50;;;;;;;3.17;1.60;;;;;;;16.25;60.14;100268.72;4830486;29;20023;-86
2022/11/24 03:16:16;;;;;;;3.75;1.65;;;;;;;16.25;60.01;100270.47;4845080;29;20060;-85
2022/11/24 03:18:41;;;;;;;4.78;1.85;;;;;;;16.25;60.17;100267.88;4830490;29;20019;-86
2022/11/24 03:21:07;;;;;;;3.20;1.80;;;;;;;16.27;60.10;100275.63;4830092;29;20027;-85
2022/11/24 03:23:33;;;;;;;4.13;2.20;;;;;;;16.25;60.05;100276.50;4845437;29;20030;-86
2022/11/24 03:26:10;;;;;;;3.88;1.77;;;;;;;16.28;60.07;100282.53;4829243;29;20046;-85
2022/11/24 03:28:36;;;;;;;5.35;1.92;;;;;;;16.26;60.19;100287.75;4830200;29;20099;-86
2022/11/24 03:31:01;;;;;;;4.35;1.83;;;;;;;16.26;60.22;100295.53;4812144;29;20039;-85
2022/11/24 03:33:29;;;;;;;5.05;1.80;;;;;;;16.25;59.90;100304.22;4844566;29;20042;-85
2022/11/24 03:35:55;;;;;;;5.10;1.75;;;;;;;16.25;60.17;100310.25;4829917;29;20082;-85
2022/11/24 03:38:21;;;;;;;3.58;1.58;;;;;;;16.25;60.19;100319.78;4830288;29;20080;-86
2022/11/24 03:40:47;;;;;;;3.50;1.50;;;;;;;16.27;60.04;100319.78;4844609;29;20068;-86
2022/11/24 03:43:12;;;;;;;3.03;1.27;;;;;;;16.25;60.08;100327.56;4830697;29;20042;-86
2022/11/24 03:45:39;;;;;;;4.07;1.77;;;;;;;16.25;60.17;100327.56;4829675;29;20035;-85
2022/11/24 03:48:05;;;;;;;3.67;1.73;;;;;;;16.25;60.14;100335.38;4829861;29;20035;-86
2022/11/24 03:50:31;;;;;;;4.18;1.88;;;;;;;16.24;60.11;100324.13;4829491;29;20497;-85
2022/11/24 03:52:57;;;;;;;4.68;1.60;;;;;;;16.25;60.14;100335.38;4828949;29;20066;-85
2022/11/24 03:55:22;;;;;;;3.75;1.63;;;;;;;16.24;60.43;100337.09;4829686;29;20118;-85
2022/11/24 03:57:48;;;;;;;3.58;1.58;;;;;;;16.25;59.75;100341.41;4814144;29;20134;-86
2022/11/24 04:00:14;;;;;;;4.03;1.88;;;;;;;16.25;60.04;100343.16;4829412;29;20043;-85
2022/11/24 04:02:40;;;;;;;3.35;1.23;;;;;;;16.25;60.09;100345.75;4828899;29;20043;-85
2022/11/24 04:05:06;;;;;;;3.17;1.55;;;;;;;16.23;60.03;100339.72;4828984;29;20022;-85
2022/11/24 04:07:32;;;;;;;2.42;1.33;;;;;;;16.24;59.98;100344.91;4829080;29;20030;-86
2022/11/24 04:09:57;;;;;;;2.72;1.50;;;;;;;16.24;60.15;100349.19;4844141;29;20027;-84
2022/11/24 04:15:07;;;;;;;3.35;1.48;;;;;;;16.23;60.19;100363.09;4828953;29;20050;-85
2022/11/24 04:17:36;;;;;;;3.17;1.48;;;;;;;16.26;60.09;100368.22;4829443;29;20038;-86
2022/11/24 04:20:02;;;;;;;3.42;1.75;;;;;;;16.22;60.00;100364.81;4828775;29;20192;-84
2022/11/24 04:22:28;;;;;;;2.83;1.50;;;;;;;16.24;59.99;100369.97;4844306;29;20108;-85
2022/11/24 04:24:53;;;;;;;2.42;1.20;;;;;;;16.24;59.99;100385.56;4829236;29;20023;-86
2022/11/24 04:27:19;;;;;;;4.05;1.40;;;;;;;16.22;60.03;100375.22;4844418;29;20044;-86
2022/11/24 04:29:45;;;;;;;2.67;1.30;;;;;;;16.24;59.91;100391.63;4829062;29;20031;-85
2022/11/24 04:32:10;;;;;;;3.42;1.50;;;;;;;16.23;59.77;100383.84;4844211;29;20046;-85
2022/11/24 04:34:36;;;;;;;2.88;1.30;;;;;;;16.23;60.19;100396.81;4814201;29;20050;-85
2022/11/24 04:37:02;;;;;;;3.35;1.10;;;;;;;16.22;59.92;100401.16;4828624;29;20054;-85
2022/11/24 04:39:28;;;;;;;3.08;1.45;;;;;;;16.24;60.18;100406.31;4828365;29;20035;-85
2022/11/24 04:41:54;;;;;;;3.90;1.42;;;;;;;16.23;60.21;100404.63;4843988;29;20042;-86
2022/11/24 04:44:20;;;;;;;2.75;1.27;;;;;;;16.22;60.24;100403.75;4828813;29;20086;-85
2022/11/24 04:46:45;;;;;;;2.50;1.17;;;;;;;16.24;60.10;100414.13;4828978;29;20053;-84
2022/11/24 04:49:11;;;;;;;2.65;1.25;;;;;;;16.22;59.87;100408.06;4828849;29;20039;-86
2022/11/24 04:51:41;;;;;;;2.75;1.40;;;;;;;16.22;60.11;100408.97;4828212;29;20031;-84
2022/11/24 04:54:09;;;;;;;3.47;1.40;;;;;;;16.22;59.70;100414.16;4828034;29;20022;-85
2022/11/24 04:56:35;;;;;;;3.20;1.50;;;;;;;16.23;60.19;100415.00;4827076;29;20035;-86
2022/11/24 04:59:01;;;;;;;2.33;1.40;;;;;;;16.20;59.97;100413.31;4842838;29;20038;-85
2022/11/24 05:01:27;;;;;;;3.05;1.27;;;;;;;16.23;59.92;100420.19;4827854;29;20125;-86
2022/11/24 05:03:53;;;;;;;3.60;1.25;;;;;;;16.21;60.06;100422.81;4827942;29;20058;-84
2022/11/24 05:06:19;;;;;;;2.40;1.10;;;;;;;16.20;60.03;100421.09;4829113;29;20047;-85
2022/11/24 05:08:50;;;;;;;3.15;1.15;;;;;;;16.22;59.98;100421.06;4843506;29;20027;-85
2022/11/24 05:11:17;;;;;;;3.15;1.20;;;;;;;16.21;60.10;100422.81;4828523;29;20041;-85
2022/11/24 05:13:44;;;;;;;3.05;1.33;;;;;;;16.21;59.93;100424.53;4828714;29;20054;-85
2022/11/24 05:16:10;;;;;;;2.78;1.20;;;;;;;16.21;59.92;100428.00;4828465;29;20043;-85
2022/11/24 05:18:36;;;;;;;2.97;1.20;;;;;;;16.20;59.95;100428.88;4843416;29;20039;-84
2022/11/24 05:21:03;;;;;;;2.90;1.08;;;;;;;16.21;60.05;100447.91;4829014;29;20034;-85
2022/11/24 05:23:29;;;;;;;3.03;1.17;;;;;;;16.22;59.98;100449.63;4828353;29;20039;-85
2022/11/24 05:25:59;;;;;;;2.85;1.10;;;;;;;16.21;60.05;100458.28;4843716;29;20560;-85
2022/11/24 05:28:25;;;;;;;2.63;1.08;;;;;;;16.21;59.88;100460.88;4827820;29;20047;-85
2022/11/24 05:30:51;;;;;;;2.78;1.23;;;;;;;16.21;59.85;100466.94;4827721;29;20019;-87
2022/11/24 05:33:17;;;;;;;2.65;1.20;;;;;;;16.21;60.01;100466.94;4828106;29;20043;-85
2022/11/24 05:35:50;;;;;;;4.40;1.27;;;;;;;16.20;59.85;100473.00;4828324;29;20047;-86
2022/11/24 05:38:17;;;;;;;3.33;1.20;;;;;;;16.20;59.78;100483.41;4826353;29;20076;-84
2022/11/24 05:40:43;;;;;;;3.90;1.23;;;;;;;16.21;59.79;100484.25;4827793;29;20122;-86
2022/11/24 05:43:14;;;;;;;2.63;1.00;;;;;;;16.20;60.04;100491.19;4843405;29;20050;-86
2022/11/24 05:45:39;;;;;;;2.40;1.10;;;;;;;16.20;59.81;100492.91;4828342;29;20019;-85
2022/11/24 05:48:07;;;;;;;2.20;1.23;;;;;;;16.19;59.95;100486.00;4829411;29;20047;-86
2022/11/24 05:50:33;;;;;;;3.40;1.23;;;;;;;16.20;59.56;100504.16;4831680;29;20035;-85
2022/11/24 05:53:06;;;;;;;3.45;1.20;;;;;;;16.19;60.03;100511.97;4846559;29;20046;-84
2022/11/24 05:55:32;;;;;;;2.47;1.17;;;;;;;16.19;60.26;100520.59;4831432;29;20134;-86
2022/11/24 05:57:59;;;;;;;3.67;1.35;;;;;;;16.19;59.59;100525.78;4846818;29;20072;-85
2022/11/24 06:00:27;;;;;;;2.42;1.05;;;;;;;16.21;60.10;100528.38;4833523;29;20027;-85
2022/11/24 09:02:57;;;;;;;3.75;1.65;;;;;;;16.54;61.04;100825.09;5739770;24;20049;-84
2022/11/24 11:20:38;;;;;;;2.50;1.40;;;;;;;16.64;60.33;100947.16;5722053;24;20042;-82
2022/11/24 11:33:23;;;;;;;3.10;1.45;;;;;;;16.66;60.64;100950.59;5085471;24;20061;-81
2022/11/24 12:06:50;;;;;;;6.00;1.67;;;;;;;16.69;60.45;100960.13;4838815;29;20103;-80
2022/11/24 12:12:34;;;;;;;4.88;1.70;;;;;;;16.67;60.42;100978.31;5139356;23;20065;-83
2022/11/24 12:15:55;;;;;;;6.60;1.73;;;;;;;16.68;60.47;100981.78;4843569;29;20034;-83
2022/11/24 12:22:31;;;;;;;5.55;1.73;;;;;;;16.68;60.81;100976.59;4848262;29;20070;-83
2022/11/24 12:42:17;;;;;;;4.90;1.38;;;;;;;16.67;60.51;100980.91;4847412;29;20054;-83
2022/11/24 12:51:57;;;;;;;3.95;1.55;;;;;;;16.69;60.60;100990.44;4864306;29;20105;-82
2022/11/24 13:01:34;;;;;;;5.85;1.88;;;;;;;16.70;60.46;100985.25;4864425;29;20076;-83
2022/11/24 18:11:11;;;;;;;3.30;1.25;;;;;;;16.75;60.36;100923.72;5901803;23;20028;31
2022/11/24 18:21:00;;;;;;;4.00;1.55;;;;;;;16.76;60.34;100919.38;4811287;29;20084;-84
2022/11/24 19:47:18;;;;;;;5.13;1.80;;;;;;;16.79;61.63;100893.38;4957880;24;20041;-85
